Time;durP1;ratioP1;P1;durP2;ratioP2;P2;SDS_P1;SDS_P2;PMS_P1;PMS_P2;Temp;Humidity;BMP_temperature;BMP_pressure;BME280_temperature;BME280_humidity;BME280_pressure;Samples;Min_cycle;Max_cycle;Signal;HPM_P1;HPM_P2
2022/11/26 00:02:23;;;;;;;13.23;5.53;;;7.20;90.10;;;;;;5030887;28;21121;-73
2022/11/26 00:04:49;;;;;;;21.13;5.40;;;7.20;90.20;;;;;;5028366;28;20279;-75
2022/11/26 00:07:20;;;;;;;14.30;5.20;;;7.20;90.40;;;;;;5025059;28;21116;-75
2022/11/26 00:09:45;;;;;;;15.07;4.60;;;7.20;90.60;;;;;;5023855;28;20467;-72
2022/11/26 00:12:31;;;;;;;15.57;5.30;;;7.30;90.60;;;;;;5030669;28;20423;-72
2022/11/26 00:14:58;;;;;;;14.93;4.93;;;7.30;90.60;;;;;;5028747;28;20196;-74
2022/11/26 00:17:24;;;;;;;12.40;4.00;;;7.30;90.50;;;;;;5030352;28;20420;-74
2022/11/26 00:19:50;;;;;;;13.53;5.20;;;7.40;90.50;;;;;;5026866;28;20982;-73
2022/11/26 00:22:26;;;;;;;13.33;4.37;;;7.40;90.20;;;;;;5030395;28;20193;-73
2022/11/26 00:24:53;;;;;;;16.00;6.20;;;7.40;89.70;;;;;;5031779;28;20188;-74
2022/11/26 00:27:19;;;;;;;21.50;7.13;;;7.30;89.50;;;;;;5033023;28;20475;-73
2022/11/26 00:29:44;;;;;;;11.30;4.90;;;7.20;89.90;;;;;;5029099;28;20560;-73
2022/11/26 00:32:16;;;;;;;17.43;6.13;;;7.30;89.90;;;;;;5030249;28;20431;-74
2022/11/26 00:34:42;;;;;;;12.60;6.37;;;7.30;89.70;;;;;;5029234;28;20185;-73
2022/11/26 00:37:31;;;;;;;13.03;6.20;;;7.30;89.70;;;;;;5025221;28;20428;-75
2022/11/26 00:39:56;;;;;;;16.17;6.27;;;7.30;89.90;;;;;;5027327;28;20295;-74
2022/11/26 00:42:22;;;;;;;14.40;6.10;;;7.30;90.00;;;;;;5029770;28;20468;-73
2022/11/26 00:44:48;;;;;;;12.20;5.80;;;7.40;90.00;;;;;;5028769;28;20196;-74
2022/11/26 00:47:14;;;;;;;11.90;5.67;;;7.40;89.70;;;;;;5029553;28;20980;-73
2022/11/26 00:49:39;;;;;;;8.23;4.40;;;7.40;89.60;;;;;;5024663;28;20206;-73
2022/11/26 00:52:32;;;;;;;14.37;5.80;;;7.50;89.60;;;;;;5030194;28;20220;-74
2022/11/26 00:54:58;;;;;;;14.57;6.23;;;7.50;89.70;;;;;;5028644;28;20189;-72
2022/11/26 00:57:24;;;;;;;11.13;5.87;;;7.50;89.60;;;;;;5027605;28;20435;-73
2022/11/26 00:59:50;;;;;;;13.00;5.30;;;7.60;89.20;;;;;;5024690;28;20475;-73
2022/11/26 01:02:15;;;;;;;8.60;3.90;;;7.60;89.20;;;;;;5029185;28;20188;-72
2022/11/26 01:04:41;;;;;;;7.90;5.33;;;7.70;89.20;;;;;;5027792;28;20193;-72
2022/11/26 01:07:09;;;;;;;8.13;4.63;;;7.70;89.00;;;;;;5029015;28;20233;-73
2022/11/26 01:09:35;;;;;;;18.40;4.83;;;7.70;89.20;;;;;;5025857;28;20209;-73
2022/11/26 01:12:00;;;;;;;4.00;3.23;;;7.80;88.90;;;;;;5032405;28;20791;-73
2022/11/26 01:14:26;;;;;;;4.60;2.93;;;7.90;88.60;;;;;;5031984;28;20962;-75
2022/11/26 01:16:55;;;;;;;10.60;4.10;;;7.90;88.40;;;;;;5031456;28;20196;-73
2022/11/26 01:19:20;;;;;;;11.90;3.77;;;8.00;88.30;;;;;;5031180;28;20323;-72
2022/11/26 01:21:46;;;;;;;12.73;5.10;;;8.00;88.10;;;;;;5033097;28;20499;-72
2022/11/26 01:24:11;;;;;;;8.70;3.37;;;8.00;88.10;;;;;;5031303;28;20196;-74
2022/11/26 01:26:42;;;;;;;8.30;2.83;;;8.00;88.30;;;;;;5032151;28;20213;-75
2022/11/26 01:29:19;;;;;;;5.37;3.20;;;8.00;88.30;;;;;;5025157;28;20208;-72
2022/11/26 01:31:45;;;;;;;5.77;3.10;;;8.00;88.60;;;;;;5031352;28;20420;-72
2022/11/26 01:34:11;;;;;;;5.20;3.10;;;8.00;88.70;;;;;;5032883;28;20514;-76
2022/11/26 01:36:38;;;;;;;12.30;3.37;;;8.00;89.30;;;;;;5032734;28;20439;-74
2022/11/26 01:39:06;;;;;;;7.63;2.87;;;8.00;89.60;;;;;;5029443;28;20446;-74
2022/11/26 01:41:42;;;;;;;9.43;3.60;;;8.00;89.70;;;;;;5033063;28;20477;-74
2022/11/26 01:44:23;;;;;;;8.37;3.20;;;8.00;89.90;;;;;;5028648;28;20423;-73
2022/11/26 01:46:49;;;;;;;7.37;3.50;;;8.00;90.20;;;;;;5030543;28;20479;-74
2022/11/26 01:49:16;;;;;;;4.03;2.47;;;7.90;90.20;;;;;;5029284;28;20487;-76
2022/11/26 01:51:43;;;;;;;8.00;3.33;;;7.90;90.40;;;;;;5031476;28;20432;-74
2022/11/26 01:54:09;;;;;;;4.73;3.43;;;8.00;90.50;;;;;;5032987;28;20504;-74
2022/11/26 01:56:42;;;;;;;8.20;3.27;;;7.90;90.50;;;;;;5031689;28;20522;-74
2022/11/26 01:59:23;;;;;;;4.87;2.50;;;7.80;90.80;;;;;;5029536;28;20467;-74
2022/11/26 02:01:51;;;;;;;9.60;3.47;;;7.80;90.90;;;;;;5031132;28;20542;-72
2022/11/26 02:04:30;;;;;;;9.43;2.90;;;7.80;91.00;;;;;;5031271;28;20715;-75
2022/11/26 02:06:55;;;;;;;7.27;3.33;;;7.90;91.10;;;;;;5028667;28;20536;-72
2022/11/26 02:09:23;;;;;;;4.63;2.77;;;7.80;91.10;;;;;;5026531;28;20854;-74
2022/11/26 02:11:48;;;;;;;12.70;3.27;;;7.90;91.20;;;;;;5029527;28;20185;-73
2022/11/26 02:14:24;;;;;;;5.30;3.17;;;7.90;91.20;;;;;;5030424;28;20412;-72
2022/11/26 02:17:02;;;;;;;11.30;3.90;;;7.90;91.10;;;;;;5029541;28;20451;-72
2022/11/26 02:20:02;;;;;;;5.70;3.23;;;8.00;91.10;;;;;;5023358;28;20471;-73
2022/11/26 02:22:48;;;;;;;9.60;3.30;;;8.00;91.00;;;;;;5029930;28;20428;-71
2022/11/26 02:25:51;;;;;;;7.40;3.00;;;8.10;90.90;;;;;;5026687;28;20472;-71
2022/11/26 02:28:47;;;;;;;8.30;3.60;;;8.10;90.80;;;;;;5030110;28;20979;-73
2022/11/26 02:31:47;;;;;;;9.90;3.50;;;8.10;90.80;;;;;;5026365;28;20459;-71
2022/11/26 02:34:21;;;;;;;8.53;3.10;;;8.00;90.80;;;;;;5026310;28;20950;-71
2022/11/26 02:37:02;;;;;;;11.73;3.50;;;8.00;90.90;;;;;;5030054;28;20505;-72
2022/11/26 02:39:29;;;;;;;6.73;3.40;;;8.00;90.90;;;;;;5028467;28;20463;-71
2022/11/26 02:42:01;;;;;;;8.13;3.00;;;8.00;90.90;;;;;;5026927;28;20433;-71
2022/11/26 02:44:43;;;;;;;9.03;3.47;;;8.00;90.90;;;;;;5030819;28;20432;-72
2022/11/26 02:47:11;;;;;;;7.07;3.50;;;7.90;91.00;;;;;;5029362;28;20862;-72
2022/11/26 02:49:41;;;;;;;8.10;3.23;;;7.90;91.10;;;;;;5025750;28;20498;-72
2022/11/26 02:52:08;;;;;;;6.50;3.20;;;7.90;91.10;;;;;;5029726;28;20440;-71
2022/11/26 02:54:35;;;;;;;8.63;3.83;;;7.90;91.20;;;;;;5030646;28;20995;-73
2022/11/26 02:57:04;;;;;;;6.97;3.03;;;7.90;91.30;;;;;;5030106;28;20542;-72
2022/11/26 02:59:30;;;;;;;12.33;3.97;;;7.90;91.20;;;;;;5025394;28;20886;-72
2022/11/26 03:02:18;;;;;;;7.73;3.60;;;7.90;91.20;;;;;;5030518;28;20431;-73
2022/11/26 03:04:49;;;;;;;12.83;4.00;;;7.90;91.30;;;;;;5029891;28;20440;-73
2022/11/26 03:07:15;;;;;;;4.63;3.00;;;7.90;91.10;;;;;;5030229;28;20470;-72
2022/11/26 03:09:52;;;;;;;7.77;3.33;;;8.00;91.20;;;;;;5024382;28;20445;-72
2022/11/26 03:12:18;;;;;;;6.00;3.43;;;8.00;90.90;;;;;;5027877;28;20458;-72
2022/11/26 03:14:44;;;;;;;7.37;3.77;;;7.90;90.80;;;;;;5033468;28;20424;-71
2022/11/26 03:17:10;;;;;;;7.47;3.20;;;8.00;90.90;;;;;;5029493;28;20458;-72
2022/11/26 03:19:35;;;;;;;11.20;3.90;;;8.00;90.80;;;;;;5027671;28;20454;-71
2022/11/26 03:22:01;;;;;;;6.00;2.97;;;8.10;90.80;;;;;;5029368;28;20269;-73
2022/11/26 03:24:27;;;;;;;13.47;3.60;;;8.00;90.70;;;;;;5030718;28;20193;-72
2022/11/26 03:26:52;;;;;;;10.03;3.60;;;8.00;91.10;;;;;;5027794;28;20212;-72
2022/11/26 03:29:18;;;;;;;5.30;3.20;;;7.90;91.30;;;;;;5028868;28;20208;-72
2022/11/26 03:31:43;;;;;;;15.70;3.80;;;7.90;91.50;;;;;;5031090;28;20571;-71
2022/11/26 03:34:09;;;;;;;12.50;4.03;;;7.90;91.80;;;;;;5031222;28;20188;-72
2022/11/26 03:36:35;;;;;;;9.33;3.87;;;7.90;92.00;;;;;;5031317;28;20667;-72
2022/11/26 03:39:00;;;;;;;7.43;3.60;;;7.90;92.20;;;;;;5030623;28;20211;-73
2022/11/26 03:41:26;;;;;;;11.93;4.67;;;8.00;92.20;;;;;;5029274;28;20193;-71
2022/11/26 03:43:51;;;;;;;10.50;4.40;;;8.00;92.40;;;;;;5030217;28;20181;-71
2022/11/26 03:46:17;;;;;;;8.87;3.80;;;8.00;92.50;;;;;;5059434;28;20757;-72
2022/11/26 03:48:42;;;;;;;10.30;3.87;;;8.00;92.50;;;;;;5028984;28;20277;-72
2022/11/26 03:51:08;;;;;;;14.23;4.20;;;7.90;92.50;;;;;;5026978;28;20602;-74
2022/11/26 03:53:34;;;;;;;8.13;4.13;;;8.00;92.60;;;;;;5032216;28;20185;-72
2022/11/26 03:55:59;;;;;;;9.20;4.90;;;8.00;92.60;;;;;;5034069;28;20195;-73
2022/11/26 03:58:25;;;;;;;11.53;5.83;;;8.00;92.60;;;;;;5034324;28;20529;-72
2022/11/26 04:00:50;;;;;;;11.50;6.30;;;7.90;92.50;;;;;;5029816;28;20232;-71
2022/11/26 04:03:16;;;;;;;21.13;6.50;;;7.80;92.40;;;;;;5038755;28;20189;-73
2022/11/26 04:05:42;;;;;;;9.67;5.33;;;7.70;92.60;;;;;;5040252;28;20223;-73
2022/11/26 04:08:07;;;;;;;11.63;5.67;;;7.80;92.70;;;;;;5035368;28;20276;-72
2022/11/26 04:10:33;;;;;;;8.80;4.10;;;7.70;92.80;;;;;;5034085;28;20223;-72
2022/11/26 04:12:58;;;;;;;16.03;4.53;;;7.60;93.00;;;;;;5037550;28;20185;-72
2022/11/26 04:15:24;;;;;;;18.40;4.90;;;7.60;93.10;;;;;;5037426;28;20185;-72
2022/11/26 04:17:50;;;;;;;8.00;4.87;;;7.50;93.20;;;;;;5034876;28;20193;-72
2022/11/26 04:20:15;;;;;;;12.37;5.17;;;7.50;93.40;;;;;;5035304;28;20243;-72
2022/11/26 04:22:41;;;;;;;13.83;4.80;;;7.40;93.50;;;;;;5037575;28;20219;-72
2022/11/26 04:25:07;;;;;;;11.60;4.70;;;7.30;93.60;;;;;;5037349;28;20611;-73
2022/11/26 04:27:34;;;;;;;6.70;3.47;;;7.40;93.90;;;;;;5037591;28;20287;-74
2022/11/26 04:29:59;;;;;;;6.30;4.00;;;7.40;93.90;;;;;;5031779;28;20544;-72
2022/11/26 04:32:25;;;;;;;11.93;4.50;;;7.50;94.00;;;;;;5032650;28;20918;-72
2022/11/26 04:34:51;;;;;;;7.90;4.73;;;7.40;93.70;;;;;;5033067;28;20185;-71
2022/11/26 04:37:16;;;;;;;7.43;4.30;;;7.40;93.60;;;;;;5034139;28;20193;-72
2022/11/26 04:39:42;;;;;;;8.67;3.97;;;7.30;93.70;;;;;;5024826;28;20710;-71
2022/11/26 04:42:07;;;;;;;15.20;4.80;;;7.30;93.70;;;;;;5032932;28;20197;-73
2022/11/26 04:44:33;;;;;;;10.77;5.40;;;7.30;93.80;;;;;;5043161;28;20212;-72
2022/11/26 04:46:59;;;;;;;10.67;4.27;;;7.30;93.90;;;;;;5046352;28;20228;-72
2022/11/26 04:49:24;;;;;;;8.73;3.97;;;7.20;94.00;;;;;;5043596;28;20675;-73
2022/11/26 04:51:50;;;;;;;7.70;4.07;;;7.30;94.10;;;;;;5040776;28;20195;-72
2022/11/26 04:54:15;;;;;;;10.87;4.80;;;7.20;94.20;;;;;;5038166;28;20284;-73
2022/11/26 04:56:41;;;;;;;9.90;4.70;;;7.20;94.20;;;;;;5033679;28;20705;-72
2022/11/26 04:59:07;;;;;;;12.43;4.73;;;7.20;94.30;;;;;;5031345;28;20193;-74
2022/11/26 05:01:32;;;;;;;15.27;5.03;;;7.10;94.30;;;;;;5028198;28;20189;-72
2022/11/26 05:03:58;;;;;;;15.97;6.23;;;7.10;94.30;;;;;;5029232;28;20184;-72
2022/11/26 05:06:23;;;;;;;14.53;4.83;;;7.00;94.30;;;;;;5031856;28;20216;-71
2022/11/26 05:08:49;;;;;;;10.43;5.20;;;7.00;94.40;;;;;;5030508;28;20185;-72
2022/11/26 05:11:15;;;;;;;20.00;5.00;;;6.90;94.40;;;;;;5028121;28;21027;-72
2022/11/26 05:13:40;;;;;;;10.70;5.30;;;6.90;94.50;;;;;;5030637;28;20184;-74
2022/11/26 05:16:06;;;;;;;10.30;4.33;;;6.80;94.60;;;;;;5032219;28;20181;-72
2022/11/26 05:18:31;;;;;;;18.00;4.77;;;6.90;94.70;;;;;;5029665;28;20250;-73
2022/11/26 05:20:57;;;;;;;10.70;4.70;;;6.80;94.60;;;;;;5028814;28;20716;-74
2022/11/26 05:23:23;;;;;;;14.37;4.47;;;6.80;94.50;;;;;;5032407;28;20181;-73
2022/11/26 05:25:49;;;;;;;9.37;5.50;;;6.70;94.50;;;;;;5031393;28;20209;-74
2022/11/26 05:28:15;;;;;;;16.57;5.23;;;6.70;94.60;;;;;;5026858;28;20189;-74
2022/11/26 05:30:41;;;;;;;15.30;6.80;;;6.60;94.60;;;;;;5026815;28;20463;-75
2022/11/26 05:33:06;;;;;;;12.50;4.97;;;6.40;94.50;;;;;;5031794;28;20177;-73
2022/11/26 05:35:32;;;;;;;18.47;5.00;;;6.40;94.70;;;;;;5031485;28;20192;-74
2022/11/26 05:37:58;;;;;;;16.17;6.10;;;6.30;94.80;;;;;;5031924;28;20193;-74
2022/11/26 05:40:23;;;;;;;15.27;6.10;;;6.40;95.00;;;;;;5023261;28;20311;-73
2022/11/26 05:42:49;;;;;;;12.70;5.60;;;6.30;94.90;;;;;;5032006;28;20678;-75
2022/11/26 05:45:15;;;;;;;10.90;5.83;;;6.10;94.90;;;;;;5031508;28;20859;-74
2022/11/26 05:47:41;;;;;;;17.80;6.00;;;6.00;94.90;;;;;;5031874;28;20288;-75
2022/11/26 05:50:07;;;;;;;15.00;7.10;;;6.00;95.00;;;;;;5027515;28;20456;-75
2022/11/26 05:52:33;;;;;;;12.20;6.40;;;5.80;95.10;;;;;;5031155;28;20934;-74
2022/11/26 05:54:59;;;;;;;13.80;6.37;;;5.80;95.20;;;;;;5031456;28;20423;-74
2022/11/26 05:57:24;;;;;;;10.33;5.90;;;5.80;95.30;;;;;;5031966;28;20189;-76
2022/11/26 05:59:50;;;;;;;12.97;5.70;;;5.80;95.50;;;;;;5026728;28;20219;-76
2022/11/26 06:02:16;;;;;;;15.37;6.23;;;5.80;95.50;;;;;;5032099;28;20181;-74
2022/11/26 06:04:42;;;;;;;20.23;6.17;;;5.80;95.50;;;;;;5031913;28;20261;-75
2022/11/26 06:07:08;;;;;;;16.77;5.80;;;5.70;95.30;;;;;;5030839;28;20230;-75
2022/11/26 06:09:34;;;;;;;14.00;6.70;;;5.70;95.40;;;;;;5032009;28;21171;-74
2022/11/26 06:11:59;;;;;;;17.87;7.60;;;5.70;95.40;;;;;;5035252;28;20435;-73
2022/11/26 06:14:25;;;;;;;14.30;7.13;;;5.60;95.30;;;;;;5034781;28;20275;-73
2022/11/26 06:16:50;;;;;;;11.77;5.70;;;5.60;95.30;;;;;;5035102;28;20268;-75
2022/11/26 06:19:16;;;;;;;13.60;6.83;;;5.60;95.40;;;;;;5033957;28;20220;-76
2022/11/26 06:21:42;;;;;;;13.80;6.10;;;5.60;95.60;;;;;;5033810;28;20565;-73
2022/11/26 06:24:07;;;;;;;11.30;6.60;;;5.60;95.60;;;;;;5036904;28;20196;-74
2022/11/26 06:26:33;;;;;;;12.43;5.70;;;5.60;95.70;;;;;;5034892;28;20235;-73
2022/11/26 06:28:59;;;;;;;18.00;7.20;;;5.60;95.80;;;;;;5035055;28;21021;-73
2022/11/26 06:31:24;;;;;;;11.50;6.30;;;5.60;95.80;;;;;;5027814;28;20199;-74
2022/11/26 06:33:54;;;;;;;25.33;7.37;;;5.50;95.80;;;;;;5032509;28;20189;-74
2022/11/26 06:36:20;;;;;;;22.20;7.33;;;5.60;95.90;;;;;;5034064;28;20192;-74
2022/11/26 06:38:45;;;;;;;14.00;6.23;;;5.60;95.90;;;;;;5033041;28;20784;-75
2022/11/26 06:41:11;;;;;;;16.03;6.17;;;5.60;95.90;;;;;;5027631;28;20576;-73
2022/11/26 06:43:37;;;;;;;15.50;6.50;;;5.50;95.90;;;;;;5031951;28;20193;-74
2022/11/26 06:46:08;;;;;;;25.13;9.20;;;5.50;95.90;;;;;;5030566;28;20220;-72
2022/11/26 06:48:35;;;;;;;19.43;6.37;;;5.50;95.90;;;;;;5030873;28;20561;-74
2022/11/26 06:51:06;;;;;;;12.73;7.30;;;5.40;95.90;;;;;;5024611;28;20471;-72
2022/11/26 06:53:32;;;;;;;15.10;6.87;;;5.40;95.80;;;;;;5031044;28;20495;-74
2022/11/26 06:55:59;;;;;;;16.10;7.63;;;5.40;95.80;;;;;;5030853;28;20436;-74
2022/11/26 06:58:25;;;;;;;14.13;7.63;;;5.40;95.70;;;;;;5033450;28;20455;-73
2022/11/26 07:00:51;;;;;;;12.77;6.33;;;5.30;95.60;;;;;;5031962;28;20463;-76
2022/11/26 07:03:17;;;;;;;14.93;7.87;;;5.30;95.50;;;;;;5030678;28;20527;-75
2022/11/26 07:05:42;;;;;;;14.30;7.23;;;5.20;95.50;;;;;;5030248;28;20212;-76
2022/11/26 07:08:08;;;;;;;21.83;7.60;;;5.20;95.50;;;;;;5029643;28;20200;-74
2022/11/26 07:10:33;;;;;;;9.00;5.60;;;5.20;95.60;;;;;;5025755;28;20217;-74
2022/11/26 07:12:59;;;;;;;15.70;7.80;;;5.20;95.60;;;;;;5031064;28;20208;-74
2022/11/26 07:15:25;;;;;;;19.27;7.33;;;5.20;95.60;;;;;;5032361;28;20216;-74
2022/11/26 07:17:51;;;;;;;16.73;6.90;;;5.20;95.70;;;;;;5032869;28;20667;-76
2022/11/26 07:20:16;;;;;;;17.23;7.30;;;5.20;95.70;;;;;;5028897;28;20460;-75
2022/11/26 07:22:42;;;;;;;16.20;7.93;;;5.20;95.60;;;;;;5033910;28;20260;-75
2022/11/26 07:25:08;;;;;;;13.47;7.23;;;5.20;95.70;;;;;;5033890;28;20251;-74
2022/11/26 07:27:33;;;;;;;19.97;7.93;;;5.30;95.60;;;;;;5030721;28;20253;-74
2022/11/26 07:29:59;;;;;;;15.93;7.87;;;5.30;95.70;;;;;;5030898;28;20221;-75
2022/11/26 07:32:25;;;;;;;14.53;7.03;;;5.40;95.80;;;;;;5034068;28;20666;-75
2022/11/26 07:34:51;;;;;;;16.83;7.40;;;5.50;95.80;;;;;;5033064;28;20193;-74
2022/11/26 07:37:16;;;;;;;16.40;7.30;;;5.60;95.80;;;;;;5036659;28;20427;-74
2022/11/26 07:39:42;;;;;;;15.33;6.30;;;5.70;95.70;;;;;;5034943;28;20202;-74
2022/11/26 07:42:08;;;;;;;14.03;7.23;;;5.80;95.60;;;;;;5040187;28;20189;-75
2022/11/26 07:44:33;;;;;;;13.33;6.77;;;5.80;95.50;;;;;;5040185;28;20186;-73
2022/11/26 07:47:00;;;;;;;17.10;8.07;;;5.90;95.40;;;;;;5052270;28;20241;-75
2022/11/26 07:49:26;;;;;;;17.83;6.90;;;5.90;95.00;;;;;;5042008;28;20201;-75
2022/11/26 07:51:51;;;;;;;17.23;8.50;;;5.90;94.80;;;;;;5033362;28;20430;-73
2022/11/26 07:54:17;;;;;;;14.90;7.60;;;5.90;94.70;;;;;;5030340;28;20224;-73
2022/11/26 07:56:43;;;;;;;22.53;8.77;;;6.00;94.40;;;;;;5064925;28;20208;-76
2022/11/26 07:59:10;;;;;;;15.53;8.33;;;6.00;94.30;;;;;;5037615;28;20185;-74
2022/11/26 08:01:36;;;;;;;18.50;6.93;;;6.00;94.10;;;;;;5033943;28;20196;-75
2022/11/26 08:04:04;;;;;;;14.30;7.57;;;6.00;94.00;;;;;;5029317;28;20494;-75
2022/11/26 08:06:30;;;;;;;17.03;8.83;;;6.00;93.90;;;;;;5033673;28;20525;-74
2022/11/26 08:08:58;;;;;;;17.07;7.80;;;6.00;93.80;;;;;;5034375;28;20914;-74
2022/11/26 08:11:26;;;;;;;11.53;6.73;;;6.10;93.90;;;;;;5029895;28;20446;-75
2022/11/26 08:14:06;;;;;;;20.43;7.17;;;6.10;93.60;;;;;;5034458;28;20511;-74
2022/11/26 08:16:32;;;;;;;19.23;7.93;;;6.10;93.60;;;;;;5026678;28;20439;-74
2022/11/26 08:19:01;;;;;;;12.20;7.27;;;6.20;93.60;;;;;;5032300;28;20941;-75
2022/11/26 08:21:26;;;;;;;15.77;7.83;;;6.20;93.50;;;;;;5031636;28;20451;-75
2022/11/26 08:23:53;;;;;;;15.03;8.00;;;6.20;93.30;;;;;;5035466;28;20923;-76
2022/11/26 08:26:19;;;;;;;13.60;6.60;;;6.10;93.10;;;;;;5034082;28;20209;-74
2022/11/26 08:28:46;;;;;;;14.30;8.10;;;6.10;93.20;;;;;;5033591;28;21118;-75
2022/11/26 08:31:13;;;;;;;18.70;8.50;;;6.20;93.20;;;;;;5030167;28;20974;-72
2022/11/26 08:33:39;;;;;;;14.77;8.23;;;6.20;93.30;;;;;;5032930;28;20440;-75
2022/11/26 08:36:06;;;;;;;12.17;8.03;;;6.30;93.30;;;;;;5032114;28;20431;-74
2022/11/26 08:38:32;;;;;;;14.10;7.30;;;6.30;93.30;;;;;;5031255;28;20280;-74
2022/11/26 08:41:02;;;;;;;14.00;7.23;;;6.40;93.30;;;;;;5031338;28;20591;-74
2022/11/26 08:43:28;;;;;;;12.63;7.67;;;6.50;93.30;;;;;;5033062;28;20221;-76
2022/11/26 08:45:55;;;;;;;14.97;7.83;;;6.60;93.10;;;;;;5032368;28;20502;-75
2022/11/26 08:48:22;;;;;;;16.47;8.63;;;6.70;92.80;;;;;;5046774;28;20209;-74
2022/11/26 08:50:48;;;;;;;18.53;9.20;;;6.70;92.60;;;;;;5033900;28;20479;-75
2022/11/26 08:53:14;;;;;;;15.53;8.70;;;6.70;92.60;;;;;;5033290;28;20438;-73
2022/11/26 08:55:39;;;;;;;16.90;8.57;;;6.70;92.70;;;;;;5032352;28;20656;-72
2022/11/26 08:58:05;;;;;;;16.50;8.20;;;6.70;92.70;;;;;;5034421;28;20432;-73
2022/11/26 09:00:31;;;;;;;16.20;8.20;;;6.70;92.90;;;;;;5027477;28;20235;-74
2022/11/26 09:02:56;;;;;;;16.60;9.30;;;6.80;92.80;;;;;;5033338;28;20192;-74
2022/11/26 09:05:22;;;;;;;19.10;9.17;;;6.80;92.70;;;;;;5037435;28;20185;-74
2022/11/26 09:07:47;;;;;;;15.37;8.60;;;6.80;92.60;;;;;;5035207;28;20200;-74
2022/11/26 09:10:13;;;;;;;16.80;9.10;;;6.80;92.60;;;;;;5030312;28;20637;-73
2022/11/26 09:12:39;;;;;;;25.00;8.77;;;6.90;92.70;;;;;;5032522;28;20246;-74
2022/11/26 09:15:05;;;;;;;18.73;9.80;;;6.80;92.40;;;;;;5033581;28;20798;-73
2022/11/26 09:17:31;;;;;;;20.13;10.40;;;6.70;92.30;;;;;;5035049;28;20549;-73
2022/11/26 09:19:57;;;;;;;17.60;9.03;;;6.80;92.30;;;;;;5029746;28;20551;-74
2022/11/26 09:22:22;;;;;;;18.60;9.60;;;6.80;92.30;;;;;;5031261;28;20188;-73
2022/11/26 09:24:48;;;;;;;19.50;10.03;;;6.80;92.50;;;;;;5030934;28;20186;-76
2022/11/26 09:27:14;;;;;;;21.60;9.63;;;6.90;92.70;;;;;;5031898;28;20463;-73
2022/11/26 09:29:39;;;;;;;17.40;8.80;;;6.90;92.90;;;;;;5028239;28;20214;-74
2022/11/26 09:32:06;;;;;;;21.27;10.30;;;7.10;93.00;;;;;;5031529;28;20195;-73
2022/11/26 09:34:32;;;;;;;25.70;11.13;;;7.10;93.00;;;;;;5027491;28;20268;-75
2022/11/26 09:36:57;;;;;;;22.07;11.93;;;7.10;92.80;;;;;;5037726;28;20824;-74
2022/11/26 09:39:23;;;;;;;21.00;10.80;;;7.10;92.70;;;;;;5030919;28;20284;-74
2022/11/26 09:42:34;;;;;;;17.23;8.97;;;7.20;92.80;;;;;;5030044;28;20212;-72
2022/11/26 09:45:14;;;;;;;15.70;8.10;;;7.30;93.00;;;;;;5039206;28;20197;-71
2022/11/26 09:47:44;;;;;;;11.63;7.10;;;7.40;93.00;;;;;;5032104;28;20515;-72
2022/11/26 09:50:09;;;;;;;20.73;9.47;;;7.50;92.70;;;;;;5025918;28;20464;-73
2022/11/26 09:52:45;;;;;;;23.87;9.60;;;7.60;92.30;;;;;;5036781;28;20473;-71
2022/11/26 09:55:20;;;;;;;24.97;11.40;;;7.70;91.80;;;;;;5036922;28;20191;-73
2022/11/26 09:58:11;;;;;;;14.40;9.33;;;7.80;91.40;;;;;;5025604;28;20443;-71
2022/11/26 10:00:43;;;;;;;16.40;9.13;;;7.70;91.10;;;;;;5024465;28;20578;-72
2022/11/26 10:03:15;;;;;;;22.83;10.40;;;7.70;90.80;;;;;;5027433;28;20423;-72
2022/11/26 10:05:58;;;;;;;15.50;10.73;;;7.70;90.90;;;;;;5026470;28;20541;-73
2022/11/26 10:08:47;;;;;;;14.90;9.33;;;7.70;90.80;;;;;;5025723;28;20446;-72
2022/11/26 10:11:32;;;;;;;23.33;8.60;;;7.70;90.70;;;;;;5023309;28;20462;-71
2022/11/26 10:14:25;;;;;;;20.73;8.53;;;7.70;90.70;;;;;;5027047;28;20412;-73
2022/11/26 10:17:15;;;;;;;16.30;8.90;;;7.60;90.80;;;;;;5027412;28;20930;-72
2022/11/26 10:20:00;;;;;;;21.20;10.10;;;7.60;91.00;;;;;;5023436;28;20503;-72
2022/11/26 10:22:37;;;;;;;19.33;8.90;;;7.70;91.10;;;;;;5024696;28;20430;-72
2022/11/26 10:25:14;;;;;;;20.37;10.80;;;7.90;91.20;;;;;;5026002;28;20530;-71
2022/11/26 10:27:41;;;;;;;18.23;8.90;;;8.20;91.40;;;;;;5027218;28;20814;-72
2022/11/26 10:30:27;;;;;;;13.30;8.67;;;8.70;91.70;;;;;;5023996;28;20874;-73
2022/11/26 10:32:54;;;;;;;11.60;7.90;;;9.30;91.90;;;;;;5033762;28;20427;-71
2022/11/26 10:35:26;;;;;;;19.80;7.20;;;9.80;91.60;;;;;;5035845;28;20433;-75
2022/11/26 10:37:54;;;;;;;12.80;7.67;;;10.20;90.10;;;;;;5030873;28;20431;-76
2022/11/26 10:40:29;;;;;;;15.30;6.77;;;10.40;88.70;;;;;;5027270;28;20467;-74
2022/11/26 10:43:08;;;;;;;15.20;7.10;;;10.70;86.20;;;;;;5039359;28;20438;-75
2022/11/26 10:45:49;;;;;;;14.23;5.97;;;11.10;83.30;;;;;;5032647;28;20853;-76
2022/11/26 10:48:28;;;;;;;19.70;6.67;;;11.50;81.70;;;;;;5031498;28;20466;-75
2022/11/26 10:51:09;;;;;;;19.80;7.63;;;11.60;79.50;;;;;;5029621;28;20455;-74
2022/11/26 10:53:51;;;;;;;20.57;7.37;;;11.60;76.70;;;;;;5033193;28;20420;-75
2022/11/26 10:56:22;;;;;;;12.03;6.67;;;11.20;75.40;;;;;;5029945;28;21007;-75
2022/11/26 10:58:50;;;;;;;11.70;5.20;;;11.10;76.40;;;;;;5029131;28;20439;-74
2022/11/26 11:01:16;;;;;;;11.93;4.63;;;11.20;75.80;;;;;;5029133;28;20502;-76
2022/11/26 11:03:53;;;;;;;11.63;5.00;;;11.00;75.10;;;;;;5037104;28;20515;-76
2022/11/26 11:06:19;;;;;;;16.70;5.50;;;11.00;75.40;;;;;;5036680;28;20463;-76
2022/11/26 11:08:47;;;;;;;9.37;4.90;;;11.00;75.80;;;;;;5035399;28;20785;-75
2022/11/26 11:11:28;;;;;;;18.40;6.73;;;11.10;75.90;;;;;;5031990;28;20616;-77
2022/11/26 11:13:54;;;;;;;13.80;5.87;;;11.10;75.40;;;;;;5035224;28;20498;-76
2022/11/26 11:16:36;;;;;;;19.50;7.90;;;11.00;76.20;;;;;;5034366;28;20946;-75
2022/11/26 11:19:10;;;;;;;24.23;8.70;;;10.90;76.50;;;;;;5028579;28;20209;-75
2022/11/26 11:21:37;;;;;;;12.90;6.90;;;10.80;77.10;;;;;;5035915;28;20988;-77
2022/11/26 11:24:16;;;;;;;13.93;7.40;;;10.70;77.80;;;;;;5037304;28;20458;-75
2022/11/26 11:26:55;;;;;;;17.17;7.83;;;10.60;78.30;;;;;;5035086;28;20463;-75
2022/11/26 11:29:37;;;;;;;16.60;8.20;;;10.60;78.90;;;;;;5033762;28;20504;-73
2022/11/26 11:32:05;;;;;;;30.30;9.67;;;10.40;79.50;;;;;;5032128;28;20430;-74
2022/11/26 11:34:34;;;;;;;12.17;7.83;;;10.30;80.00;;;;;;5034569;28;20432;-75
2022/11/26 11:37:11;;;;;;;19.27;9.00;;;10.30;80.50;;;;;;5035124;28;20453;-75
2022/11/26 11:39:37;;;;;;;25.27;9.10;;;10.30;80.80;;;;;;5030985;28;20485;-73
2022/11/26 11:42:13;;;;;;;22.77;8.67;;;10.20;80.90;;;;;;5034515;28;21045;-76
2022/11/26 11:44:45;;;;;;;20.37;9.30;;;10.10;81.20;;;;;;5034535;28;20200;-75
2022/11/26 11:47:56;;;;;;;17.33;8.77;;;10.00;81.50;;;;;;5035665;28;20478;-76
2022/11/26 11:50:57;;;;;;;22.57;9.47;;;9.70;82.20;;;;;;5025815;28;20494;-77
2022/11/26 11:53:36;;;;;;;15.03;9.03;;;9.60;83.10;;;;;;5031150;28;20434;-74
2022/11/26 11:56:17;;;;;;;17.20;8.43;;;9.60;83.30;;;;;;5039439;28;20433;-76
2022/11/26 11:59:36;;;;;;;19.13;8.80;;;9.60;83.40;;;;;;5037109;28;20431;-76
2022/11/26 12:02:22;;;;;;;16.07;8.37;;;9.50;83.70;;;;;;4990838;28;20501;-75
2022/11/26 12:04:54;;;;;;;18.90;8.20;;;9.60;83.80;;;;;;5040799;28;20432;-74
2022/11/26 12:07:44;;;;;;;20.40;9.00;;;9.60;83.40;;;;;;5043241;28;20569;-72
2022/11/26 12:10:33;;;;;;;12.37;6.07;;;9.60;83.10;;;;;;5034770;28;20501;-75
2022/11/26 12:13:00;;;;;;;16.57;7.20;;;9.60;82.70;;;;;;5015573;28;21326;-75
2022/11/26 12:15:34;;;;;;;15.03;6.73;;;9.60;82.80;;;;;;5030710;28;20428;-75
2022/11/26 12:18:21;;;;;;;9.60;6.10;;;9.70;82.80;;;;;;5027304;28;20634;-74
2022/11/26 12:21:04;;;;;;;12.20;6.13;;;9.80;82.80;;;;;;5010779;28;20988;-75
2022/11/26 12:23:43;;;;;;;13.37;5.93;;;10.00;82.40;;;;;;5026494;28;20531;-74
2022/11/26 12:26:35;;;;;;;19.63;7.10;;;10.10;82.10;;;;;;5030824;28;20471;-76
2022/11/26 12:29:13;;;;;;;12.10;5.77;;;10.50;81.10;;;;;;5030226;28;20443;-74
2022/11/26 12:31:52;;;;;;;16.77;5.63;;;10.80;79.90;;;;;;5032980;28;20473;-74
2022/11/26 12:34:36;;;;;;;16.50;6.40;;;11.10;78.90;;;;;;5030508;28;20909;-76
2022/11/26 12:37:25;;;;;;;16.83;6.60;;;11.10;77.80;;;;;;5032560;28;20432;-77
2022/11/26 12:40:26;;;;;;;15.63;7.03;;;11.30;77.30;;;;;;5029336;28;20467;-76
2022/11/26 12:43:01;;;;;;;12.20;6.77;;;11.30;76.70;;;;;;4993681;28;20433;-74
2022/11/26 12:45:38;;;;;;;18.40;6.60;;;11.00;75.90;;;;;;4997845;28;20536;-77
2022/11/26 12:48:17;;;;;;;16.60;5.90;;;10.80;77.00;;;;;;4993901;28;20444;-78
2022/11/26 12:50:52;;;;;;;16.47;6.50;;;10.80;78.00;;;;;;4988912;28;20469;-77
2022/11/26 12:53:41;;;;;;;10.97;5.77;;;10.80;77.70;;;;;;4987599;28;20509;-78
2022/11/26 12:56:28;;;;;;;12.83;5.50;;;10.90;77.80;;;;;;4990677;28;20472;-76
2022/11/26 12:59:32;;;;;;;10.93;5.90;;;10.90;77.40;;;;;;4992193;28;20500;-76
2022/11/26 13:01:59;;;;;;;12.40;6.03;;;10.60;77.30;;;;;;4983288;28;20449;-78
2022/11/26 13:04:27;;;;;;;10.97;5.57;;;10.60;78.10;;;;;;4987540;28;20446;-77
2022/11/26 13:07:12;;;;;;;11.70;6.30;;;10.50;78.40;;;;;;4991904;28;20958;-77